createdAt,value
2023-05-19T00:00:10.616Z,77.97
2023-05-19T00:03:00.584Z,77.95
2023-05-19T00:05:30.641Z,78.09
2023-05-19T00:08:01.335Z,78.23
2023-05-19T00:10:31.922Z,78.29
2023-05-19T00:13:01.030Z,78.28
2023-05-19T00:15:29.886Z,78.29
2023-05-19T00:17:59.054Z,78.44
2023-05-19T00:20:27.483Z,78.60
2023-05-19T00:22:55.968Z,78.55
2023-05-19T00:25:24.410Z,78.63
2023-05-19T00:27:52.805Z,78.64
2023-05-19T00:30:22.922Z,78.71
2023-05-19T00:32:51.846Z,78.77
2023-05-19T00:35:20.471Z,78.83
2023-05-19T00:37:49.066Z,79.04
2023-05-19T00:40:17.680Z,79.02
2023-05-19T00:42:46.027Z,79.27
2023-05-19T00:45:14.533Z,79.42
2023-05-19T00:47:42.967Z,79.39
2023-05-19T00:50:11.403Z,79.65
2023-05-19T00:52:39.784Z,79.73
2023-05-19T00:55:09.846Z,79.87
2023-05-19T00:57:38.806Z,80.01
2023-05-19T01:00:08.406Z,80.10
2023-05-19T01:02:40.105Z,80.13
2023-05-19T01:05:09.422Z,80.16
2023-05-19T01:07:38.242Z,80.25
2023-05-19T01:10:07.262Z,80.51
2023-05-19T01:12:36.698Z,80.44
2023-05-19T01:15:06.680Z,80.49
2023-05-19T01:18:22.424Z,80.50
2023-05-19T01:21:03.784Z,80.71
2023-05-19T01:23:52.008Z,80.77
2023-05-19T01:26:55.272Z,80.91
2023-05-19T01:30:02.879Z,80.88
2023-05-19T01:32:33.714Z,80.94
2023-05-19T01:35:04.502Z,81.02
2023-05-19T01:37:34.275Z,81.11
2023-05-19T01:40:02.807Z,81.22
2023-05-19T01:42:37.403Z,81.16
2023-05-19T01:45:10.628Z,81.42
2023-05-19T01:47:43.955Z,81.44
2023-05-19T01:50:12.497Z,81.46
2023-05-19T01:52:40.998Z,81.62
2023-05-19T01:55:09.919Z,81.72
2023-05-19T01:58:33.662Z,81.72
2023-05-19T02:01:31.410Z,81.94
2023-05-19T02:04:19.682Z,81.99
2023-05-19T02:07:13.497Z,82.09
2023-05-19T02:10:05.832Z,82.23
2023-05-19T02:12:40.761Z,82.32
2023-05-19T02:15:17.387Z,82.58
2023-05-19T02:17:50.784Z,82.50
2023-05-19T02:20:19.452Z,82.65
2023-05-19T02:22:48.661Z,82.79
2023-05-19T02:25:17.132Z,82.90
2023-05-19T02:27:45.814Z,83.02
2023-05-19T02:30:14.321Z,83.03
2023-05-19T02:32:42.756Z,83.18
2023-05-19T02:35:11.432Z,83.15
2023-05-19T02:37:39.976Z,83.38
2023-05-19T02:40:09.302Z,83.42
2023-05-19T02:42:37.908Z,83.63
2023-05-19T02:45:07.216Z,83.67
2023-05-19T02:47:38.768Z,83.84
2023-05-19T02:50:08.556Z,83.98
2023-05-19T02:52:36.978Z,84.05
2023-05-19T02:55:06.088Z,84.08
2023-05-19T02:57:35.049Z,84.12
2023-05-19T03:00:04.686Z,84.27
2023-05-19T03:02:34.258Z,84.42
2023-05-19T03:05:03.845Z,84.43
2023-05-19T03:07:33.844Z,84.49
2023-05-19T03:10:06.657Z,84.50
2023-05-19T03:12:35.278Z,84.58
2023-05-19T03:15:04.099Z,84.73
2023-05-19T03:17:34.453Z,85.02
2023-05-19T03:20:04.111Z,85.15
2023-05-19T03:22:33.088Z,85.23
2023-05-19T03:25:01.577Z,85.38
2023-05-19T03:27:30.115Z,85.45
2023-05-19T03:29:58.483Z,85.39
2023-05-19T03:32:27.033Z,85.62
2023-05-19T03:34:55.446Z,85.62
2023-05-19T03:37:23.855Z,85.79
2023-05-19T03:39:52.270Z,86.00
2023-05-19T03:42:20.738Z,86.07
2023-05-19T03:44:49.190Z,86.14
2023-05-19T03:47:17.779Z,86.36
2023-05-19T03:49:46.291Z,86.46
2023-05-19T03:52:15.727Z,86.58
2023-05-19T03:54:45.138Z,86.64
2023-05-19T03:57:14.917Z,86.79
2023-05-19T03:59:44.024Z,86.58
2023-05-19T04:02:12.545Z,86.69
2023-05-19T04:04:41.407Z,86.75
2023-05-19T04:07:09.812Z,86.66
2023-05-19T04:09:39.008Z,86.83
2023-05-19T04:12:07.918Z,86.84
2023-05-19T04:14:36.454Z,86.83
2023-05-19T04:17:05.515Z,86.78
2023-05-19T04:19:33.855Z,87.00
2023-05-19T04:22:02.182Z,87.15
2023-05-19T04:24:30.604Z,87.18
2023-05-19T04:27:02.719Z,87.17
2023-05-19T04:29:32.669Z,87.19
2023-05-19T04:32:01.167Z,87.38
2023-05-19T04:34:29.554Z,87.22
2023-05-19T04:36:57.944Z,87.16
2023-05-19T04:39:26.325Z,87.01
2023-05-19T04:41:54.756Z,86.90
2023-05-19T04:44:23.123Z,86.89
2023-05-19T04:46:54.336Z,86.98
2023-05-19T04:49:24.433Z,86.76
2023-05-19T04:51:55.586Z,86.59
2023-05-19T04:54:24.282Z,86.51
2023-05-19T04:56:52.643Z,86.33
2023-05-19T04:59:22.536Z,86.40
2023-05-19T05:01:50.968Z,86.63
2023-05-19T05:04:21.793Z,86.29
2023-05-19T05:06:50.677Z,86.36
2023-05-19T05:09:20.013Z,86.30
2023-05-19T05:11:48.822Z,86.12
2023-05-19T05:14:17.598Z,86.02
2023-05-19T05:16:46.525Z,86.01
2023-05-19T05:19:15.460Z,85.90
2023-05-19T05:21:44.346Z,85.83
2023-05-19T05:24:13.671Z,85.67
2023-05-19T05:26:42.974Z,85.42
2023-05-19T05:29:11.381Z,85.25
2023-05-19T05:31:39.793Z,85.12
2023-05-19T05:34:08.335Z,85.00
2023-05-19T05:36:36.934Z,84.81
2023-05-19T05:39:05.696Z,84.87
2023-05-19T05:41:36.969Z,84.78
2023-05-19T05:44:05.512Z,84.52
2023-05-19T05:46:34.023Z,84.28
2023-05-19T05:49:02.933Z,84.24
2023-05-19T05:51:33.004Z,84.31
2023-05-19T05:54:02.679Z,84.06
2023-05-19T05:56:33.752Z,83.94
2023-05-19T05:59:02.855Z,83.98
2023-05-19T06:01:33.642Z,83.88
2023-05-19T06:04:03.436Z,83.92
2023-05-19T06:06:32.736Z,83.79
2023-05-19T06:09:01.206Z,83.66
2023-05-19T06:11:29.998Z,83.54
2023-05-19T06:16:42.978Z,83.51
2023-05-19T06:19:11.957Z,83.42
2023-05-19T06:21:43.035Z,83.19
2023-05-19T06:24:12.201Z,83.23
2023-05-19T06:27:50.089Z,83.18
2023-05-19T06:30:18.554Z,83.04
2023-05-19T06:32:47.036Z,83.25
2023-05-19T06:35:15.576Z,83.23
2023-05-19T06:37:43.949Z,83.15
2023-05-19T06:40:13.362Z,83.19
2023-05-19T06:42:41.720Z,83.26
2023-05-19T06:45:10.866Z,83.37
2023-05-19T06:47:43.541Z,83.35
2023-05-19T06:50:11.907Z,83.25
2023-05-19T06:52:41.065Z,83.42
2023-05-19T06:55:09.879Z,83.52
2023-05-19T06:57:39.944Z,83.29
2023-05-19T07:00:12.610Z,83.36
2023-05-19T07:02:42.887Z,83.32
2023-05-19T07:05:11.464Z,83.27
2023-05-19T07:07:42.656Z,83.22
2023-05-19T07:10:11.669Z,82.99
2023-05-19T07:12:40.091Z,83.09
2023-05-19T07:15:08.981Z,83.39
2023-05-19T07:17:37.732Z,83.27
2023-05-19T07:29:25.732Z,83.63
2023-05-19T07:31:57.866Z,83.56
2023-05-19T07:34:26.555Z,83.55
2023-05-19T07:36:55.171Z,83.30
2023-05-19T07:39:35.820Z,83.43
2023-05-19T07:42:04.902Z,83.47
2023-05-19T07:44:34.611Z,83.37
2023-05-19T07:47:03.173Z,82.98
2023-05-19T07:49:31.713Z,82.62
2023-05-19T07:52:00.127Z,82.55
2023-05-19T07:54:28.518Z,82.45
2023-05-19T07:56:56.918Z,82.52
2023-05-19T07:59:25.265Z,82.61
2023-05-19T08:01:53.671Z,82.62
2023-05-19T08:04:22.115Z,82.44
2023-05-19T08:06:55.782Z,82.51
2023-05-19T08:09:24.145Z,82.41
2023-05-19T08:11:52.525Z,82.71
2023-05-19T08:14:22.884Z,82.42
2023-05-19T08:16:51.828Z,82.38
2023-05-19T08:19:20.880Z,82.24
2023-05-19T08:21:49.724Z,81.95
2023-05-19T08:24:18.106Z,81.97
2023-05-19T08:26:47.061Z,82.04
2023-05-19T08:29:15.647Z,81.74
2023-05-19T08:31:45.157Z,81.93
2023-05-19T08:34:15.974Z,81.48
2023-05-19T08:36:45.414Z,81.44
2023-05-19T08:39:16.223Z,81.43
2023-05-19T08:41:44.972Z,80.92
2023-05-19T08:44:13.407Z,80.73
2023-05-19T08:46:42.148Z,80.58
2023-05-19T08:49:14.079Z,80.39
2023-05-19T08:51:58.648Z,79.88
2023-05-19T08:54:37.374Z,79.47
2023-05-19T08:57:06.852Z,78.97
2023-05-19T08:59:35.320Z,78.37
2023-05-19T09:02:04.960Z,78.21
2023-05-19T09:04:33.957Z,78.15
2023-05-19T09:07:04.167Z,77.83
2023-05-19T09:09:32.733Z,77.77
2023-05-19T09:12:01.313Z,77.40
2023-05-19T09:14:30.849Z,77.18
2023-05-19T09:16:59.380Z,77.35
2023-05-19T09:19:31.327Z,77.21
2023-05-19T09:22:03.483Z,77.14
2023-05-19T09:24:33.846Z,76.99
2023-05-19T09:27:02.301Z,76.41
2023-05-19T09:29:31.114Z,76.03
2023-05-19T09:32:05.869Z,75.71
2023-05-19T09:34:34.390Z,75.49
2023-05-19T09:37:02.743Z,75.46
2023-05-19T09:39:34.774Z,75.46
2023-05-19T09:42:05.498Z,75.35
2023-05-19T09:53:46.470Z,74.74
2023-05-19T09:56:15.275Z,74.93
2023-05-19T09:58:43.874Z,74.81
2023-05-19T10:01:12.714Z,74.70
2023-05-19T10:03:42.616Z,74.63
2023-05-19T10:06:11.701Z,74.76
2023-05-19T10:08:42.625Z,74.66
2023-05-19T10:11:12.183Z,74.51
2023-05-19T10:13:41.318Z,74.40
2023-05-19T10:16:11.066Z,74.46
2023-05-19T10:18:40.254Z,74.44
2023-05-19T10:21:09.601Z,74.68
2023-05-19T10:23:38.723Z,74.53
2023-05-19T10:26:09.261Z,74.53
2023-05-19T10:28:41.070Z,74.39
2023-05-19T10:31:17.070Z,74.45
2023-05-19T10:34:32.689Z,74.63
2023-05-19T10:37:28.555Z,74.63
2023-05-19T10:40:13.719Z,74.85
2023-05-19T10:43:11.805Z,74.86
2023-05-19T10:45:54.976Z,74.49
2023-05-19T10:48:23.489Z,74.35
2023-05-19T10:50:56.474Z,74.55
2023-05-19T10:53:32.705Z,74.74
2023-05-19T10:56:07.036Z,74.87
2023-05-19T10:58:49.331Z,74.61
2023-05-19T11:01:20.879Z,74.64
2023-05-19T11:03:59.685Z,74.74
2023-05-19T11:06:34.216Z,75.20
2023-05-19T11:09:22.512Z,75.07
2023-05-19T11:11:55.219Z,75.19
2023-05-19T11:14:27.629Z,74.90
2023-05-19T11:17:00.297Z,74.77
2023-05-19T11:19:31.220Z,74.74
2023-05-19T11:22:13.752Z,74.77
2023-05-19T11:24:50.083Z,74.78
2023-05-19T11:27:33.638Z,74.76
2023-05-19T11:30:09.392Z,74.70
2023-05-19T11:32:42.728Z,74.53
2023-05-19T11:35:11.689Z,74.42
2023-05-19T11:37:43.625Z,74.46
2023-05-19T11:40:13.754Z,74.44
2023-05-19T11:42:42.287Z,74.36
2023-05-19T11:45:10.819Z,74.52
2023-05-19T11:47:59.674Z,74.44
2023-05-19T11:50:27.748Z,74.45
2023-05-19T11:52:56.997Z,74.25
2023-05-19T11:55:25.420Z,74.25
2023-05-19T12:00:39.196Z,74.22
2023-05-19T12:06:19.855Z,74.55
2023-05-19T12:08:50.521Z,74.64
2023-05-19T12:11:20.133Z,74.73
2023-05-19T12:13:50.867Z,74.85
2023-05-19T12:16:23.031Z,74.84
2023-05-19T12:18:51.495Z,74.86
2023-05-19T12:21:19.960Z,74.82
2023-05-19T12:23:48.468Z,74.78
2023-05-19T12:26:19.446Z,74.78
2023-05-19T12:28:51.004Z,75.05
2023-05-19T12:31:23.579Z,75.27
2023-05-19T12:33:52.441Z,75.41
2023-05-19T12:36:23.555Z,75.49
2023-05-19T12:38:55.694Z,75.48
2023-05-19T12:41:27.440Z,75.42
2023-05-19T12:43:55.951Z,75.54
2023-05-19T12:46:24.417Z,75.64
2023-05-19T12:48:53.488Z,75.71
2023-05-19T12:51:21.907Z,75.73
2023-05-19T12:53:50.887Z,75.69
2023-05-19T12:56:19.464Z,75.42
2023-05-19T12:58:47.858Z,75.52
2023-05-19T13:01:18.615Z,75.61
2023-05-19T13:03:47.475Z,75.67
2023-05-19T13:06:16.239Z,75.41
2023-05-19T13:08:47.394Z,75.35
2023-05-19T13:11:15.816Z,75.54
2023-05-19T13:13:47.335Z,75.39
2023-05-19T13:16:15.982Z,75.56
2023-05-19T13:18:44.661Z,75.36
2023-05-19T13:21:13.656Z,75.81
2023-05-19T13:23:42.008Z,76.08
2023-05-19T13:26:12.904Z,76.29
2023-05-19T13:28:41.506Z,76.61
2023-05-19T13:31:10.088Z,76.75
2023-05-19T13:33:38.591Z,76.90
2023-05-19T13:36:07.136Z,76.85
2023-05-19T13:38:35.566Z,76.57
2023-05-19T13:41:04.168Z,76.65
2023-05-19T13:43:32.514Z,76.72
2023-05-19T13:46:01.141Z,76.58
2023-05-19T13:48:29.721Z,76.53
2023-05-19T13:50:58.197Z,76.18
2023-05-19T13:53:27.555Z,76.21
2023-05-19T13:55:56.302Z,75.90
2023-05-19T13:58:24.687Z,75.65
2023-05-19T14:00:54.814Z,75.57
2023-05-19T14:03:24.981Z,75.81
2023-05-19T14:05:53.630Z,75.45
2023-05-19T14:08:22.927Z,75.15
2023-05-19T14:10:51.968Z,75.38
2023-05-19T14:13:32.323Z,75.30
2023-05-19T14:16:03.054Z,75.34
2023-05-19T14:18:32.482Z,75.08
2023-05-19T14:21:00.983Z,75.26
2023-05-19T14:23:30.331Z,75.07
2023-05-19T14:26:31.300Z,75.04
2023-05-19T14:29:00.162Z,75.02
2023-05-19T14:31:28.612Z,75.07
2023-05-19T14:33:57.154Z,75.40
2023-05-19T14:36:25.756Z,75.40
2023-05-19T14:38:54.101Z,75.33
2023-05-19T14:41:22.729Z,75.24
2023-05-19T14:43:51.187Z,75.39
2023-05-19T14:46:19.649Z,75.32
2023-05-19T14:48:48.193Z,75.41
2023-05-19T14:51:16.626Z,75.43
2023-05-19T14:53:45.047Z,75.32
2023-05-19T14:56:13.419Z,75.30
2023-05-19T14:58:41.888Z,75.22
2023-05-19T15:01:10.339Z,75.18
2023-05-19T15:03:38.766Z,75.34
2023-05-19T15:06:10.986Z,75.43
2023-05-19T15:08:40.834Z,75.37
2023-05-19T15:11:09.257Z,75.51
2023-05-19T15:13:37.686Z,75.48
2023-05-19T15:16:16.771Z,75.49
2023-05-19T15:18:46.629Z,75.44
2023-05-19T15:21:15.780Z,75.56
2023-05-19T15:23:44.794Z,75.47
2023-05-19T15:26:13.355Z,75.42
2023-05-19T15:28:41.846Z,75.52
2023-05-19T15:31:10.618Z,75.72
2023-05-19T15:33:39.120Z,75.86
2023-05-19T15:36:07.543Z,75.95
2023-05-19T15:38:36.919Z,76.00
2023-05-19T15:41:08.504Z,75.89
2023-05-19T15:43:37.039Z,76.04
2023-05-19T15:46:05.646Z,76.16
2023-05-19T15:48:34.399Z,76.16
2023-05-19T15:51:02.916Z,76.24
2023-05-19T15:53:31.394Z,76.27
2023-05-19T15:55:59.797Z,76.62
2023-05-19T15:58:28.217Z,76.76
2023-05-19T16:00:56.650Z,76.87
2023-05-19T16:03:25.515Z,77.14
2023-05-19T16:05:54.348Z,77.17
2023-05-19T16:08:22.893Z,77.43
2023-05-19T16:10:51.257Z,77.50
2023-05-19T16:13:19.741Z,77.48
2023-05-19T16:15:48.665Z,77.73
2023-05-19T16:18:17.422Z,77.84
2023-05-19T16:20:46.371Z,77.75
2023-05-19T16:23:14.745Z,77.79
2023-05-19T16:25:43.128Z,77.78
2023-05-19T16:28:11.481Z,77.94
2023-05-19T16:30:40.394Z,77.83
2023-05-19T16:33:08.981Z,77.86
2023-05-19T16:35:37.552Z,78.01
2023-05-19T16:38:06.093Z,78.16
2023-05-19T16:40:35.430Z,78.32
2023-05-19T16:43:04.742Z,78.51
2023-05-19T16:45:33.174Z,78.69
2023-05-19T16:48:01.736Z,78.74
2023-05-19T16:50:30.821Z,78.74
2023-05-19T16:52:59.232Z,78.95
2023-05-19T16:55:27.681Z,79.07
2023-05-19T16:57:56.333Z,79.11
2023-05-19T17:00:24.787Z,79.13
2023-05-19T17:02:53.268Z,79.30
2023-05-19T17:05:21.609Z,79.44
2023-05-19T17:07:50.040Z,79.47
2023-05-19T17:10:18.717Z,79.66
2023-05-19T17:12:47.086Z,79.69
2023-05-19T17:15:15.794Z,79.80
2023-05-19T17:17:44.247Z,79.91
2023-05-19T17:20:13.612Z,79.99
2023-05-19T17:22:42.165Z,80.21
2023-05-19T17:25:10.957Z,80.41
2023-05-19T17:27:39.437Z,80.42
2023-05-19T17:30:09.367Z,80.54
2023-05-19T17:32:39.633Z,80.48
2023-05-19T17:35:08.609Z,80.43
2023-05-19T17:37:37.291Z,80.71
2023-05-19T17:40:08.613Z,80.74
2023-05-19T17:42:36.967Z,80.93
2023-05-19T17:45:07.642Z,80.91
2023-05-19T17:47:36.107Z,81.06
2023-05-19T17:50:05.066Z,81.18
2023-05-19T17:52:34.201Z,81.45
2023-05-19T17:55:03.040Z,81.39
2023-05-19T17:57:35.554Z,81.58
2023-05-19T18:00:05.597Z,81.55
2023-05-19T18:02:34.703Z,81.72
2023-05-19T18:05:04.212Z,81.79
2023-05-19T18:07:37.687Z,81.80
2023-05-19T18:10:08.236Z,81.93
2023-05-19T18:12:36.665Z,82.04
2023-05-19T18:15:06.074Z,82.05
2023-05-19T18:17:34.800Z,82.26
2023-05-19T18:20:03.488Z,82.47
2023-05-19T18:22:31.948Z,82.59
2023-05-19T18:25:01.066Z,82.76
2023-05-19T18:27:29.857Z,82.86
2023-05-19T18:29:58.338Z,82.91
2023-05-19T18:32:26.815Z,83.04
2023-05-19T18:34:55.383Z,83.08
2023-05-19T18:37:23.806Z,83.20
2023-05-19T18:39:52.713Z,83.21
2023-05-19T18:42:21.796Z,83.33
2023-05-19T18:44:50.806Z,83.45
2023-05-19T18:47:20.138Z,83.76
2023-05-19T18:50:14.419Z,83.77
2023-05-19T18:52:42.869Z,83.89
2023-05-19T18:55:11.444Z,83.88
2023-05-19T18:57:39.865Z,84.08
2023-05-19T19:00:09.239Z,84.16
2023-05-19T19:02:37.910Z,84.33
2023-05-19T19:05:09.746Z,84.28
2023-05-19T19:07:42.147Z,84.41
2023-05-19T19:10:22.171Z,84.51
2023-05-19T19:12:50.751Z,84.65
2023-05-19T19:15:19.104Z,84.85
2023-05-19T19:17:47.521Z,84.92
2023-05-19T19:20:16.073Z,84.99
2023-05-19T19:22:44.553Z,85.02
2023-05-19T19:25:13.018Z,85.18
2023-05-19T19:27:41.530Z,85.40
2023-05-19T19:30:10.140Z,85.42
2023-05-19T19:32:38.577Z,85.67
2023-05-19T19:35:07.599Z,85.75
2023-05-19T19:37:36.075Z,85.71
2023-05-19T19:40:05.429Z,85.94
2023-05-19T19:42:34.125Z,86.07
2023-05-19T19:45:02.668Z,86.15
2023-05-19T19:47:31.449Z,86.19
2023-05-19T19:50:01.188Z,86.28
2023-05-19T19:52:29.649Z,86.26
2023-05-19T19:54:58.076Z,86.59
2023-05-19T19:57:27.122Z,86.57
2023-05-19T19:59:57.455Z,86.66
2023-05-19T20:02:26.583Z,86.76
2023-05-19T20:04:55.185Z,86.95
2023-05-19T20:07:23.614Z,87.00
2023-05-19T20:09:53.007Z,87.16
2023-05-19T20:12:22.534Z,87.29
2023-05-19T20:14:54.039Z,87.27
2023-05-19T20:17:22.576Z,87.32
2023-05-19T20:19:51.167Z,87.47
2023-05-19T20:22:19.574Z,87.61
2023-05-19T20:24:47.986Z,87.67
2023-05-19T20:27:16.453Z,87.71
2023-05-19T20:29:47.037Z,87.83
2023-05-19T20:32:15.692Z,87.94
2023-05-19T20:34:44.186Z,88.00
2023-05-19T20:37:13.831Z,88.24
2023-05-19T20:39:42.204Z,88.34
2023-05-19T20:42:11.379Z,88.39
2023-05-19T20:44:39.783Z,88.50
2023-05-19T20:47:08.550Z,88.53
2023-05-19T20:49:37.012Z,88.52
2023-05-19T20:52:05.686Z,88.75
2023-05-19T20:54:34.096Z,88.93
2023-05-19T20:57:06.511Z,88.92
2023-05-19T20:59:38.466Z,88.98
2023-05-19T21:02:07.688Z,89.25
2023-05-19T21:04:37.962Z,89.30
2023-05-19T21:07:06.469Z,89.49
2023-05-19T21:09:34.931Z,89.54
2023-05-19T21:12:03.631Z,89.68
2023-05-19T21:14:32.080Z,89.66
2023-05-19T21:17:00.747Z,89.94
2023-05-19T21:19:29.265Z,89.95
2023-05-19T21:21:57.915Z,90.00
2023-05-19T21:24:26.608Z,90.16
2023-05-19T21:26:55.082Z,90.24
2023-05-19T21:29:23.658Z,90.40
2023-05-19T21:31:52.712Z,90.50
2023-05-19T21:34:21.074Z,90.50
2023-05-19T21:36:52.115Z,90.60
2023-05-19T21:39:20.539Z,90.55
2023-05-19T21:41:49.013Z,90.74
2023-05-19T21:44:17.854Z,90.78
2023-05-19T21:46:46.328Z,90.96
2023-05-19T21:49:14.869Z,90.87
2023-05-19T21:51:43.298Z,90.89
2023-05-19T21:54:11.693Z,91.01
2023-05-19T21:56:40.308Z,90.97
2023-05-19T21:59:09.211Z,91.02
2023-05-19T22:01:38.009Z,91.07
2023-05-19T22:04:06.624Z,91.07
2023-05-19T22:06:35.079Z,91.21
2023-05-19T22:09:04.364Z,91.17
2023-05-19T22:11:32.778Z,91.24
2023-05-19T22:14:01.243Z,91.24
2023-05-19T22:16:30.829Z,91.38
2023-05-19T22:18:59.259Z,91.40
2023-05-19T22:21:27.744Z,91.34
2023-05-19T22:23:56.237Z,91.49
2023-05-19T22:26:24.682Z,91.56
2023-05-19T22:28:53.501Z,91.48
2023-05-19T22:31:22.157Z,91.62
2023-05-19T22:33:50.672Z,91.70
2023-05-19T22:36:19.084Z,91.79
2023-05-19T22:38:47.764Z,91.75
2023-05-19T22:41:16.158Z,91.81
2023-05-19T22:43:44.559Z,91.81
2023-05-19T22:46:13.004Z,91.97
2023-05-19T22:48:41.644Z,92.09
2023-05-19T22:51:10.105Z,92.06
2023-05-19T22:53:38.473Z,92.01
2023-05-19T22:56:07.395Z,92.08
2023-05-19T22:58:35.952Z,92.13
2023-05-19T23:01:04.408Z,92.12
2023-05-19T23:03:32.814Z,92.19
2023-05-19T23:06:01.402Z,92.18
2023-05-19T23:08:29.765Z,92.19
2023-05-19T23:11:02.283Z,92.30
2023-05-19T23:13:31.488Z,92.29
2023-05-19T23:16:00.160Z,92.41
2023-05-19T23:18:28.531Z,92.47
2023-05-19T23:20:56.876Z,92.54
2023-05-19T23:23:25.682Z,92.51
2023-05-19T23:25:54.872Z,92.63
2023-05-19T23:28:23.223Z,92.61
2023-05-19T23:30:54.256Z,92.69
2023-05-19T23:33:23.034Z,92.65
2023-05-19T23:35:51.548Z,92.75
2023-05-19T23:38:19.879Z,92.77
2023-05-19T23:40:48.310Z,92.71
2023-05-19T23:43:16.659Z,92.79
2023-05-19T23:45:45.136Z,92.77
2023-05-19T23:48:13.631Z,92.84
2023-05-19T23:50:42.116Z,92.78
2023-05-19T23:53:10.516Z,92.74
2023-05-19T23:55:38.862Z,92.86
2023-05-19T23:58:07.479Z,92.75
